Flight Track Log - Related Links

Times and Time Zones

All times are in EDT time to prevent confusion due to time zone crossing. See the KLM1900 flight status page for this flight to view local times or setup timezone preferences in your user account.

Time Position Orientation Groundspeed Altitude Reporting Facility
EDT Latitude Longitude Course Direction KTS MPH feet Rate Location/Type
Mon 02:18:00 AM 52.4535 9.0870 269° West  Level Estimated
Mon 02:19:00 AM 52.4511 8.9375 269° West  Level Estimated
Mon 02:20:00 AM 52.4478 8.7478 268° West  Level Estimated
Mon 02:21:00 AM 52.4443 8.5582 268° West  Level Estimated
Mon 02:22:00 AM 52.4404 8.3685 268° West  Level Estimated
Mon 02:23:00 AM 52.4362 8.1789 268° West  Level Estimated
Mon 02:24:00 AM 52.4317 7.9893 268° West  Level Estimated
Mon 02:25:00 AM 52.4269 7.7998 268° West  Level Estimated
Mon 02:26:00 AM 52.4218 7.6103 268° West  Level Estimated
Mon 02:27:00 AM 52.4164 7.4209 267° West  Level Estimated
Mon 02:28:00 AM 52.4107 7.2315 267° West  Level Estimated
Mon 02:29:00 AM 52.4047 7.0422 267° West  Level Estimated
Mon 02:30:00 AM 52.3984 6.8529 267° West  Level Estimated
Mon 02:31:00 AM 52.3918 6.6637 267° West  Level Estimated
Mon 02:32:00 AM 52.3849 6.4745 267° West  Level Estimated
Mon 02:33:00 AM 52.3777 6.2854 267° West  Level Estimated
Mon 02:34:00 AM 52.3702 6.0963 266° West  Level Estimated
Mon 02:35:00 AM 52.3624 5.9073 266° West  Level Estimated
Mon 02:36:00 AM 52.3543 5.7184 266° West  Level Estimated
Mon 02:37:00 AM 52.3459 5.5296 266° West  Level Estimated
Mon 02:38:00 AM 52.3371 5.3408 266° West  Level Estimated
Mon 02:39:00 AM 52.3281 5.1521 266° West  Level Estimated
Mon 02:40:00 AM 52.3188 4.9635 265° West  Level Estimated
Mon 02:41:00 AM 52.3092 4.7749 265° West  Level Estimated
Mon 02:42:00 AM 52.3086 4.7639 265° West  Level Estimated
Mon 02:43:00 AM 52.3086 4.7639 North  Level Estimated
Mon 02:44:00 AM 52.3086 4.7639 North  Level Estimated
Mon 02:45:00 AM 52.3086 4.7639 North  Level Estimated
Mon 02:46:00 AM 52.3086 4.7639 North  Level Estimated
Mon 02:47:00 AM 52.3086 4.7639 North  Level Estimated
Mon 02:48:00 AM 52.3086 4.7639 North  Level Estimated
Mon 02:48:01 AM 52.5282 4.7813 North 130 150 2,900  Level FlightAware UK
Mon 02:48:43 AM 52.4960 4.7530 208° Southwest 223 257 2,900 -100 Level FlightAware UK
Mon 02:49:01 AM 52.4795 4.7537 178° South 174 200 2,800 -500 Descending FlightAware UK
Mon 02:49:19 AM 52.4645 4.7545 178° South 174 200 2,600 -833 Descending FlightAware UK
Mon 02:49:37 AM 52.4491 4.7523 185° South 174 200 2,300 -800 Descending FlightAware UK
Mon 02:50:19 AM 52.4208 4.7489 184° South 149 171 1,800 -714 Descending FlightAware UK
Mon 02:52:00 AM 52.3086 4.7639 175° South  Level Estimated

Login

Don't have an account? Register now (free) for customized features, flight alerts, and more!